sensor_id;sensor_type;location;lat;lon;timestamp;pressure;altitude;pressure_sealevel;temperature;humidity
64614;BME280;51025;37.772;-122.432;2023-04-26T00:00:00;100756.26;;;19.85;25.47
64614;BME280;51025;37.772;-122.432;2023-04-26T00:02:29;100753.73;;;19.57;25.55
64614;BME280;51025;37.772;-122.432;2023-04-26T00:04:57;100757.84;;;19.65;25.31
64614;BME280;51025;37.772;-122.432;2023-04-26T00:07:25;100763.58;;;19.23;25.60
64614;BME280;51025;37.772;-122.432;2023-04-26T00:09:54;100755.79;;;19.95;25.00
64614;BME280;51025;37.772;-122.432;2023-04-26T00:12:22;100758.33;;;20.43;24.93
64614;BME280;51025;37.772;-122.432;2023-04-26T00:14:51;100763.96;;;19.24;25.57
64614;BME280;51025;37.772;-122.432;2023-04-26T00:17:19;100760.60;;;19.66;25.19
64614;BME280;51025;37.772;-122.432;2023-04-26T00:19:47;100756.52;;;20.35;25.35
64614;BME280;51025;37.772;-122.432;2023-04-26T00:22:15;100756.28;;;19.48;25.49
64614;BME280;51025;37.772;-122.432;2023-04-26T00:24:44;100761.21;;;19.56;25.41
64614;BME280;51025;37.772;-122.432;2023-04-26T00:27:13;100771.70;;;19.41;25.60
64614;BME280;51025;37.772;-122.432;2023-04-26T00:29:42;100763.81;;;19.64;25.48
64614;BME280;51025;37.772;-122.432;2023-04-26T00:32:10;100762.96;;;19.63;25.49
64614;BME280;51025;37.772;-122.432;2023-04-26T00:34:38;100762.89;;;20.31;24.99
64614;BME280;51025;37.772;-122.432;2023-04-26T00:37:12;100761.56;;;20.43;24.93
64614;BME280;51025;37.772;-122.432;2023-04-26T00:39:40;100764.38;;;20.04;25.38
64614;BME280;51025;37.772;-122.432;2023-04-26T00:42:09;100762.85;;;20.40;25.85
64614;BME280;51025;37.772;-122.432;2023-04-26T00:44:37;100765.54;;;19.23;26.26
64614;BME280;51025;37.772;-122.432;2023-04-26T00:47:05;100764.81;;;19.84;25.85
64614;BME280;51025;37.772;-122.432;2023-04-26T00:49:34;100767.08;;;20.56;25.61
64614;BME280;51025;37.772;-122.432;2023-04-26T00:52:04;100765.73;;;19.63;26.05
64614;BME280;51025;37.772;-122.432;2023-04-26T00:54:32;100762.37;;;20.05;26.08
64614;BME280;51025;37.772;-122.432;2023-04-26T00:57:02;100763.47;;;19.32;26.33
64614;BME280;51025;37.772;-122.432;2023-04-26T00:59:30;100767.34;;;19.35;26.35
64614;BME280;51025;37.772;-122.432;2023-04-26T01:01:59;100760.88;;;20.80;25.56
64614;BME280;51025;37.772;-122.432;2023-04-26T01:04:27;100762.26;;;20.52;25.73
64614;BME280;51025;37.772;-122.432;2023-04-26T01:06:56;100759.20;;;20.41;25.84
64614;BME280;51025;37.772;-122.432;2023-04-26T01:09:25;100761.14;;;19.25;26.56
64614;BME280;51025;37.772;-122.432;2023-04-26T01:11:53;100763.98;;;19.75;26.43
64614;BME280;51025;37.772;-122.432;2023-04-26T01:14:22;100767.80;;;19.66;26.56
64614;BME280;51025;37.772;-122.432;2023-04-26T01:16:50;100763.89;;;20.39;26.33
64614;BME280;51025;37.772;-122.432;2023-04-26T01:19:19;100767.09;;;19.74;26.56
64614;BME280;51025;37.772;-122.432;2023-04-26T01:21:48;100758.63;;;19.89;26.40
64614;BME280;51025;37.772;-122.432;2023-04-26T01:24:16;100764.44;;;19.12;26.71
64614;BME280;51025;37.772;-122.432;2023-04-26T01:26:45;100765.34;;;19.59;26.64
64614;BME280;51025;37.772;-122.432;2023-04-26T01:29:16;100769.73;;;19.34;26.48
64614;BME280;51025;37.772;-122.432;2023-04-26T01:31:45;100764.31;;;19.20;26.70
64614;BME280;51025;37.772;-122.432;2023-04-26T01:34:14;100769.38;;;19.58;26.36
64614;BME280;51025;37.772;-122.432;2023-04-26T01:36:42;100777.85;;;19.45;26.45
64614;BME280;51025;37.772;-122.432;2023-04-26T01:39:11;100774.81;;;20.27;26.43
64614;BME280;51025;37.772;-122.432;2023-04-26T01:41:39;100774.36;;;19.66;26.31
64614;BME280;51025;37.772;-122.432;2023-04-26T01:44:08;100776.08;;;19.80;26.53
64614;BME280;51025;37.772;-122.432;2023-04-26T01:46:36;100773.35;;;19.79;26.51
64614;BME280;51025;37.772;-122.432;2023-04-26T01:49:05;100776.55;;;20.08;26.29
64614;BME280;51025;37.772;-122.432;2023-04-26T01:51:33;100778.78;;;19.70;26.93
64614;BME280;51025;37.772;-122.432;2023-04-26T01:54:01;100773.57;;;19.81;26.55
64614;BME280;51025;37.772;-122.432;2023-04-26T01:56:30;100770.22;;;19.74;26.55
64614;BME280;51025;37.772;-122.432;2023-04-26T01:58:58;100777.33;;;20.44;26.27
64614;BME280;51025;37.772;-122.432;2023-04-26T02:01:26;100778.36;;;20.27;26.42
64614;BME280;51025;37.772;-122.432;2023-04-26T02:03:55;100782.41;;;19.49;26.79
64614;BME280;51025;37.772;-122.432;2023-04-26T02:06:24;100781.19;;;19.48;26.76
64614;BME280;51025;37.772;-122.432;2023-04-26T02:08:53;100776.84;;;19.71;26.58
64614;BME280;51025;37.772;-122.432;2023-04-26T02:11:21;100790.36;;;19.42;26.76
64614;BME280;51025;37.772;-122.432;2023-04-26T02:13:50;100782.52;;;19.40;26.85
64614;BME280;51025;37.772;-122.432;2023-04-26T02:16:18;100787.36;;;19.41;27.10
64614;BME280;51025;37.772;-122.432;2023-04-26T02:18:47;100786.88;;;19.16;27.04
64614;BME280;51025;37.772;-122.432;2023-04-26T02:21:17;100798.68;;;18.59;27.14
64614;BME280;51025;37.772;-122.432;2023-04-26T02:23:45;100800.88;;;18.64;27.09
64614;BME280;51025;37.772;-122.432;2023-04-26T02:26:14;100814.60;;;19.41;27.07
64614;BME280;51025;37.772;-122.432;2023-04-26T02:28:42;100809.56;;;19.63;26.89
64614;BME280;51025;37.772;-122.432;2023-04-26T02:31:11;100807.91;;;18.64;27.43
64614;BME280;51025;37.772;-122.432;2023-04-26T02:33:39;100812.93;;;19.62;26.92
64614;BME280;51025;37.772;-122.432;2023-04-26T02:36:08;100816.78;;;19.19;27.26
64614;BME280;51025;37.772;-122.432;2023-04-26T02:38:36;100819.26;;;18.67;27.38
64614;BME280;51025;37.772;-122.432;2023-04-26T02:41:05;100821.80;;;19.51;26.98
64614;BME280;51025;37.772;-122.432;2023-04-26T02:43:33;100828.35;;;19.21;27.20
64614;BME280;51025;37.772;-122.432;2023-04-26T02:46:02;100825.09;;;18.62;27.39
64614;BME280;51025;37.772;-122.432;2023-04-26T02:48:30;100828.11;;;18.49;27.56
64614;BME280;51025;37.772;-122.432;2023-04-26T02:50:58;100826.80;;;18.89;27.68
64614;BME280;51025;37.772;-122.432;2023-04-26T02:53:26;100821.45;;;19.27;27.48
64614;BME280;51025;37.772;-122.432;2023-04-26T02:55:58;100827.61;;;19.37;27.48
64614;BME280;51025;37.772;-122.432;2023-04-26T02:58:27;100831.39;;;19.76;27.13
64614;BME280;51025;37.772;-122.432;2023-04-26T03:00:57;100829.35;;;20.24;26.80
64614;BME280;51025;37.772;-122.432;2023-04-26T03:03:26;100830.99;;;19.18;27.42
64614;BME280;51025;37.772;-122.432;2023-04-26T03:05:54;100827.35;;;20.53;26.30
64614;BME280;51025;37.772;-122.432;2023-04-26T03:08:22;100833.50;;;20.40;26.33
64614;BME280;51025;37.772;-122.432;2023-04-26T03:10:50;100833.94;;;20.19;26.54
64614;BME280;51025;37.772;-122.432;2023-04-26T03:13:18;100840.65;;;20.20;26.85
64614;BME280;51025;37.772;-122.432;2023-04-26T03:15:47;100845.86;;;19.59;27.14
64614;BME280;51025;37.772;-122.432;2023-04-26T03:18:15;100848.87;;;19.45;26.91
64614;BME280;51025;37.772;-122.432;2023-04-26T03:20:45;100846.33;;;19.90;26.80
64614;BME280;51025;37.772;-122.432;2023-04-26T03:23:14;100848.75;;;19.94;26.85
64614;BME280;51025;37.772;-122.432;2023-04-26T03:25:41;100848.91;;;20.40;26.42
64614;BME280;51025;37.772;-122.432;2023-04-26T03:28:10;100848.74;;;20.41;26.09
64614;BME280;51025;37.772;-122.432;2023-04-26T03:30:37;100862.91;;;19.97;26.44
64614;BME280;51025;37.772;-122.432;2023-04-26T03:33:06;100867.86;;;19.67;26.69
64614;BME280;51025;37.772;-122.432;2023-04-26T03:35:34;100878.13;;;19.48;26.87
64614;BME280;51025;37.772;-122.432;2023-04-26T03:38:03;100874.45;;;20.71;26.29
64614;BME280;51025;37.772;-122.432;2023-04-26T03:40:30;100876.13;;;19.79;26.69
64614;BME280;51025;37.772;-122.432;2023-04-26T03:42:59;100879.17;;;20.20;26.89
64614;BME280;51025;37.772;-122.432;2023-04-26T03:45:27;100874.94;;;20.41;26.93
64614;BME280;51025;37.772;-122.432;2023-04-26T03:47:55;100880.46;;;19.50;27.48
64614;BME280;51025;37.772;-122.432;2023-04-26T03:50:23;100874.45;;;19.88;27.39
64614;BME280;51025;37.772;-122.432;2023-04-26T03:52:51;100880.34;;;19.93;27.89
64614;BME280;51025;37.772;-122.432;2023-04-26T03:55:20;100884.94;;;19.31;28.01
64614;BME280;51025;37.772;-122.432;2023-04-26T03:57:48;100890.37;;;19.72;27.61
64614;BME280;51025;37.772;-122.432;2023-04-26T04:00:16;100890.95;;;19.93;27.43
64614;BME280;51025;37.772;-122.432;2023-04-26T04:02:44;100895.63;;;19.39;27.85
64614;BME280;51025;37.772;-122.432;2023-04-26T04:05:13;100895.17;;;19.87;27.42
64614;BME280;51025;37.772;-122.432;2023-04-26T04:07:41;100893.60;;;20.15;27.15
64614;BME280;51025;37.772;-122.432;2023-04-26T04:10:09;100897.97;;;20.74;27.23
64614;BME280;51025;37.772;-122.432;2023-04-26T04:12:37;100895.23;;;20.70;26.57
64614;BME280;51025;37.772;-122.432;2023-04-26T04:15:06;100902.13;;;20.25;27.01
64614;BME280;51025;37.772;-122.432;2023-04-26T04:17:35;100902.23;;;20.73;27.23
64614;BME280;51025;37.772;-122.432;2023-04-26T04:20:04;100909.82;;;19.86;27.59
64614;BME280;51025;37.772;-122.432;2023-04-26T04:22:33;100915.35;;;20.61;27.18
64614;BME280;51025;37.772;-122.432;2023-04-26T04:25:01;100922.66;;;20.14;27.76
64614;BME280;51025;37.772;-122.432;2023-04-26T04:27:29;100919.48;;;21.15;26.99
64614;BME280;51025;37.772;-122.432;2023-04-26T04:29:57;100921.42;;;21.08;27.48
64614;BME280;51025;37.772;-122.432;2023-04-26T04:32:26;100922.39;;;20.23;28.19
64614;BME280;51025;37.772;-122.432;2023-04-26T04:34:55;100922.87;;;19.78;28.19
64614;BME280;51025;37.772;-122.432;2023-04-26T04:37:23;100924.24;;;20.07;27.90
64614;BME280;51025;37.772;-122.432;2023-04-26T04:39:52;100930.60;;;19.54;28.38
64614;BME280;51025;37.772;-122.432;2023-04-26T04:42:20;100933.94;;;19.71;28.18
64614;BME280;51025;37.772;-122.432;2023-04-26T04:44:48;100941.56;;;19.85;27.97
64614;BME280;51025;37.772;-122.432;2023-04-26T04:47:16;100942.96;;;20.24;27.63
64614;BME280;51025;37.772;-122.432;2023-04-26T04:49:45;100934.39;;;19.92;27.84
64614;BME280;51025;37.772;-122.432;2023-04-26T04:52:14;100937.88;;;19.37;28.32
64614;BME280;51025;37.772;-122.432;2023-04-26T04:54:43;100931.55;;;20.59;27.28
64614;BME280;51025;37.772;-122.432;2023-04-26T04:57:11;100937.04;;;19.75;28.02
64614;BME280;51025;37.772;-122.432;2023-04-26T04:59:41;100937.46;;;20.58;27.19
64614;BME280;51025;37.772;-122.432;2023-04-26T05:02:10;100932.47;;;20.84;27.28
64614;BME280;51025;37.772;-122.432;2023-04-26T05:04:38;100931.68;;;20.61;27.39
64614;BME280;51025;37.772;-122.432;2023-04-26T05:07:06;100934.77;;;19.94;27.54
64614;BME280;51025;37.772;-122.432;2023-04-26T05:09:35;100935.03;;;19.74;27.97
64614;BME280;51025;37.772;-122.432;2023-04-26T05:12:03;100934.84;;;19.51;27.77
64614;BME280;51025;37.772;-122.432;2023-04-26T05:14:32;100934.58;;;19.66;27.53
64614;BME280;51025;37.772;-122.432;2023-04-26T05:17:00;100933.33;;;19.68;27.84
64614;BME280;51025;37.772;-122.432;2023-04-26T05:19:29;100936.05;;;19.34;27.71
64614;BME280;51025;37.772;-122.432;2023-04-26T05:21:57;100933.30;;;21.27;26.79
64614;BME280;51025;37.772;-122.432;2023-04-26T05:24:28;100934.59;;;20.85;26.78
64614;BME280;51025;37.772;-122.432;2023-04-26T05:26:58;100939.85;;;19.92;27.46
64614;BME280;51025;37.772;-122.432;2023-04-26T05:29:29;100932.85;;;20.52;26.56
64614;BME280;51025;37.772;-122.432;2023-04-26T05:31:57;100935.41;;;20.59;26.60
64614;BME280;51025;37.772;-122.432;2023-04-26T05:34:26;100943.33;;;20.67;26.80
64614;BME280;51025;37.772;-122.432;2023-04-26T05:36:54;100944.83;;;19.51;27.71
64614;BME280;51025;37.772;-122.432;2023-04-26T05:39:24;100940.81;;;19.91;27.27
64614;BME280;51025;37.772;-122.432;2023-04-26T05:41:52;100950.37;;;19.94;27.22
64614;BME280;51025;37.772;-122.432;2023-04-26T05:44:21;100955.69;;;20.25;27.27
64614;BME280;51025;37.772;-122.432;2023-04-26T05:46:50;100957.08;;;19.64;27.51
64614;BME280;51025;37.772;-122.432;2023-04-26T05:49:19;100958.57;;;19.63;27.45
64614;BME280;51025;37.772;-122.432;2023-04-26T05:51:47;100958.83;;;19.87;27.55
64614;BME280;51025;37.772;-122.432;2023-04-26T05:54:16;100961.39;;;19.79;27.34
64614;BME280;51025;37.772;-122.432;2023-04-26T05:56:43;100960.46;;;19.05;27.48
64614;BME280;51025;37.772;-122.432;2023-04-26T05:59:12;100959.84;;;20.75;26.73
64614;BME280;51025;37.772;-122.432;2023-04-26T06:01:40;100966.77;;;19.51;27.13
64614;BME280;51025;37.772;-122.432;2023-04-26T06:04:08;100969.83;;;19.84;27.43
64614;BME280;51025;37.772;-122.432;2023-04-26T06:06:37;100966.34;;;19.91;27.29
64614;BME280;51025;37.772;-122.432;2023-04-26T06:09:05;100964.85;;;19.38;27.45
64614;BME280;51025;37.772;-122.432;2023-04-26T06:11:33;100966.58;;;19.77;27.35
64614;BME280;51025;37.772;-122.432;2023-04-26T06:14:01;100963.14;;;19.26;27.54
64614;BME280;51025;37.772;-122.432;2023-04-26T06:16:30;100960.13;;;19.92;27.20
64614;BME280;51025;37.772;-122.432;2023-04-26T06:18:58;100958.97;;;20.19;26.75
64614;BME280;51025;37.772;-122.432;2023-04-26T06:21:26;100958.59;;;20.14;27.16
64614;BME280;51025;37.772;-122.432;2023-04-26T06:23:54;100957.84;;;20.11;27.27
64614;BME280;51025;37.772;-122.432;2023-04-26T06:26:23;100959.02;;;20.19;27.20
64614;BME280;51025;37.772;-122.432;2023-04-26T06:28:51;100959.89;;;20.55;26.63
64614;BME280;51025;37.772;-122.432;2023-04-26T06:31:19;100954.20;;;20.70;26.73
64614;BME280;51025;37.772;-122.432;2023-04-26T06:33:47;100954.84;;;19.45;27.47
64614;BME280;51025;37.772;-122.432;2023-04-26T06:36:15;100955.69;;;18.65;27.80
64614;BME280;51025;37.772;-122.432;2023-04-26T06:38:43;100955.47;;;19.22;27.27
64614;BME280;51025;37.772;-122.432;2023-04-26T06:41:12;100954.12;;;19.57;27.64
64614;BME280;51025;37.772;-122.432;2023-04-26T06:43:40;100955.10;;;20.18;27.13
64614;BME280;51025;37.772;-122.432;2023-04-26T06:46:08;100959.47;;;19.78;26.75
64614;BME280;51025;37.772;-122.432;2023-04-26T06:48:36;100958.80;;;20.41;26.89
64614;BME280;51025;37.772;-122.432;2023-04-26T06:51:05;100956.77;;;20.07;26.91
64614;BME280;51025;37.772;-122.432;2023-04-26T06:53:33;100957.14;;;20.44;26.49
64614;BME280;51025;37.772;-122.432;2023-04-26T06:56:01;100956.14;;;20.48;26.71
64614;BME280;51025;37.772;-122.432;2023-04-26T06:58:29;100956.62;;;19.84;27.22
64614;BME280;51025;37.772;-122.432;2023-04-26T07:00:57;100954.37;;;20.40;26.27
64614;BME280;51025;37.772;-122.432;2023-04-26T07:03:25;100953.65;;;20.21;26.54
64614;BME280;51025;37.772;-122.432;2023-04-26T07:05:55;100952.57;;;20.52;26.62
64614;BME280;51025;37.772;-122.432;2023-04-26T07:08:23;100956.24;;;19.49;27.16
64614;BME280;51025;37.772;-122.432;2023-04-26T07:10:51;100954.11;;;20.40;26.35
64614;BME280;51025;37.772;-122.432;2023-04-26T07:13:19;100955.48;;;19.44;27.08
64614;BME280;51025;37.772;-122.432;2023-04-26T07:15:47;100960.09;;;18.94;27.54
64614;BME280;51025;37.772;-122.432;2023-04-26T07:18:15;100958.83;;;19.58;27.22
64614;BME280;51025;37.772;-122.432;2023-04-26T07:20:43;100965.54;;;19.52;27.03
64614;BME280;51025;37.772;-122.432;2023-04-26T07:23:12;100962.80;;;19.48;27.30
64614;BME280;51025;37.772;-122.432;2023-04-26T07:25:41;100962.16;;;19.44;27.03
64614;BME280;51025;37.772;-122.432;2023-04-26T07:28:10;100963.90;;;20.55;26.45
64614;BME280;51025;37.772;-122.432;2023-04-26T07:30:38;100967.63;;;20.25;26.66
64614;BME280;51025;37.772;-122.432;2023-04-26T07:33:06;100961.17;;;20.19;26.41
64614;BME280;51025;37.772;-122.432;2023-04-26T07:35:34;100963.70;;;20.30;26.54
64614;BME280;51025;37.772;-122.432;2023-04-26T07:38:02;100962.86;;;19.73;26.99
64614;BME280;51025;37.772;-122.432;2023-04-26T07:40:31;100961.48;;;19.54;27.17
64614;BME280;51025;37.772;-122.432;2023-04-26T07:42:59;100961.84;;;19.77;26.70
64614;BME280;51025;37.772;-122.432;2023-04-26T07:45:27;100962.24;;;19.67;27.01
64614;BME280;51025;37.772;-122.432;2023-04-26T07:47:56;100960.48;;;19.82;26.91
64614;BME280;51025;37.772;-122.432;2023-04-26T07:50:24;100961.02;;;20.28;26.49
64614;BME280;51025;37.772;-122.432;2023-04-26T07:52:53;100962.46;;;19.37;27.18
64614;BME280;51025;37.772;-122.432;2023-04-26T07:55:21;100963.00;;;19.25;27.27
64614;BME280;51025;37.772;-122.432;2023-04-26T07:57:50;100956.26;;;19.33;26.98
64614;BME280;51025;37.772;-122.432;2023-04-26T08:00:19;100957.71;;;19.88;26.84
64614;BME280;51025;37.772;-122.432;2023-04-26T08:02:47;100960.08;;;20.19;26.41
64614;BME280;51025;37.772;-122.432;2023-04-26T08:05:16;100959.07;;;19.80;26.57
64614;BME280;51025;37.772;-122.432;2023-04-26T08:07:45;100956.79;;;20.22;26.40
64614;BME280;51025;37.772;-122.432;2023-04-26T08:10:13;100958.72;;;20.14;26.47
64614;BME280;51025;37.772;-122.432;2023-04-26T08:12:41;100957.49;;;19.94;26.65
64614;BME280;51025;37.772;-122.432;2023-04-26T08:15:11;100959.72;;;18.94;27.16
64614;BME280;51025;37.772;-122.432;2023-04-26T08:17:39;100958.21;;;19.74;26.71
64614;BME280;51025;37.772;-122.432;2023-04-26T08:20:08;100958.20;;;19.68;26.81
64614;BME280;51025;37.772;-122.432;2023-04-26T08:22:37;100960.78;;;19.05;27.04
64614;BME280;51025;37.772;-122.432;2023-04-26T08:25:06;100958.60;;;18.98;27.37
64614;BME280;51025;37.772;-122.432;2023-04-26T08:27:34;100956.77;;;18.89;27.47
64614;BME280;51025;37.772;-122.432;2023-04-26T08:30:03;100953.72;;;19.38;26.72
64614;BME280;51025;37.772;-122.432;2023-04-26T08:32:32;100950.26;;;18.75;27.29
64614;BME280;51025;37.772;-122.432;2023-04-26T08:35:00;100947.05;;;18.94;27.33
64614;BME280;51025;37.772;-122.432;2023-04-26T08:37:29;100950.45;;;18.84;27.52
64614;BME280;51025;37.772;-122.432;2023-04-26T08:39:57;100949.19;;;19.98;26.45
64614;BME280;51025;37.772;-122.432;2023-04-26T08:42:27;100950.04;;;18.91;27.10
64614;BME280;51025;37.772;-122.432;2023-04-26T08:44:55;100950.27;;;18.95;27.26
64614;BME280;51025;37.772;-122.432;2023-04-26T08:47:32;100951.02;;;19.54;26.75
64614;BME280;51025;37.772;-122.432;2023-04-26T08:50:04;100951.43;;;18.70;27.51
64614;BME280;51025;37.772;-122.432;2023-04-26T08:52:32;100953.14;;;19.69;26.64
64614;BME280;51025;37.772;-122.432;2023-04-26T08:55:05;100951.16;;;19.58;26.67
64614;BME280;51025;37.772;-122.432;2023-04-26T08:57:35;100953.06;;;19.87;26.51
64614;BME280;51025;37.772;-122.432;2023-04-26T09:00:05;100950.61;;;18.93;27.25
64614;BME280;51025;37.772;-122.432;2023-04-26T09:02:34;100950.52;;;19.34;26.91
64614;BME280;51025;37.772;-122.432;2023-04-26T09:05:02;100953.11;;;19.15;26.96
64614;BME280;51025;37.772;-122.432;2023-04-26T09:07:34;100950.43;;;18.73;27.35
64614;BME280;51025;37.772;-122.432;2023-04-26T09:10:04;100949.40;;;19.77;26.41
64614;BME280;51025;37.772;-122.432;2023-04-26T09:12:33;100950.82;;;19.09;27.09
64614;BME280;51025;37.772;-122.432;2023-04-26T09:15:01;100947.68;;;19.38;26.77
64614;BME280;51025;37.772;-122.432;2023-04-26T09:17:31;100945.02;;;19.01;27.02
64614;BME280;51025;37.772;-122.432;2023-04-26T09:20:01;100944.04;;;18.76;27.28
64614;BME280;51025;37.772;-122.432;2023-04-26T09:22:31;100941.08;;;19.01;27.12
64614;BME280;51025;37.772;-122.432;2023-04-26T09:25:00;100941.84;;;18.95;27.12
64614;BME280;51025;37.772;-122.432;2023-04-26T09:27:34;100936.53;;;19.58;26.60
64614;BME280;51025;37.772;-122.432;2023-04-26T09:30:06;100935.78;;;18.50;27.44
64614;BME280;51025;37.772;-122.432;2023-04-26T09:32:52;100936.91;;;18.36;27.60
64614;BME280;51025;37.772;-122.432;2023-04-26T09:35:28;100937.13;;;18.50;27.45
64614;BME280;51025;37.772;-122.432;2023-04-26T09:37:59;100934.98;;;19.66;26.49
64614;BME280;51025;37.772;-122.432;2023-04-26T09:40:29;100939.55;;;19.15;26.87
64614;BME280;51025;37.772;-122.432;2023-04-26T09:43:01;100939.11;;;18.54;27.36
64614;BME280;51025;37.772;-122.432;2023-04-26T09:45:31;100938.38;;;18.57;27.37
64614;BME280;51025;37.772;-122.432;2023-04-26T09:48:19;100930.33;;;18.63;27.23
64614;BME280;51025;37.772;-122.432;2023-04-26T09:50:50;100927.04;;;18.49;27.42
64614;BME280;51025;37.772;-122.432;2023-04-26T09:53:28;100927.91;;;18.41;27.49
64614;BME280;51025;37.772;-122.432;2023-04-26T09:56:04;100928.73;;;19.04;27.21
64614;BME280;51025;37.772;-122.432;2023-04-26T09:58:33;100926.70;;;18.37;27.46
64614;BME280;51025;37.772;-122.432;2023-04-26T10:01:03;100927.97;;;18.56;27.39
64614;BME280;51025;37.772;-122.432;2023-04-26T10:03:33;100925.91;;;18.21;27.63
64614;BME280;51025;37.772;-122.432;2023-04-26T10:06:02;100927.97;;;19.24;26.70
64614;BME280;51025;37.772;-122.432;2023-04-26T10:08:31;100927.09;;;18.36;27.43
64614;BME280;51025;37.772;-122.432;2023-04-26T10:11:00;100928.25;;;18.57;27.67
64614;BME280;51025;37.772;-122.432;2023-04-26T10:13:31;100932.22;;;18.51;27.66
64614;BME280;51025;37.772;-122.432;2023-04-26T10:16:01;100929.38;;;18.13;27.67
64614;BME280;51025;37.772;-122.432;2023-04-26T10:18:30;100929.48;;;18.37;27.43
64614;BME280;51025;37.772;-122.432;2023-04-26T10:21:02;100925.35;;;18.65;27.59
64614;BME280;51025;37.772;-122.432;2023-04-26T10:23:38;100925.88;;;18.84;27.28
64614;BME280;51025;37.772;-122.432;2023-04-26T10:26:07;100929.12;;;18.72;27.77
64614;BME280;51025;37.772;-122.432;2023-04-26T10:29:13;100932.19;;;18.87;26.98
64614;BME280;51025;37.772;-122.432;2023-04-26T10:32:16;100927.42;;;18.58;27.51
64614;BME280;51025;37.772;-122.432;2023-04-26T10:34:45;100927.00;;;18.92;27.56
64614;BME280;51025;37.772;-122.432;2023-04-26T10:38:08;100926.03;;;18.01;27.68
64614;BME280;51025;37.772;-122.432;2023-04-26T10:40:38;100928.36;;;18.52;27.61
64614;BME280;51025;37.772;-122.432;2023-04-26T10:43:38;100930.72;;;17.97;27.71
64614;BME280;51025;37.772;-122.432;2023-04-26T10:46:34;100936.57;;;17.78;27.84
64614;BME280;51025;37.772;-122.432;2023-04-26T10:49:20;100931.73;;;18.17;27.50
64614;BME280;51025;37.772;-122.432;2023-04-26T10:52:21;100932.14;;;18.07;27.55
64614;BME280;51025;37.772;-122.432;2023-04-26T10:54:53;100932.78;;;17.95;27.70
64614;BME280;51025;37.772;-122.432;2023-04-26T10:57:22;100928.28;;;18.88;27.20
64614;BME280;51025;37.772;-122.432;2023-04-26T11:02:09;100929.04;;;19.13;27.83
64614;BME280;51025;37.772;-122.432;2023-04-26T11:04:51;100925.11;;;18.25;27.34
64614;BME280;51025;37.772;-122.432;2023-04-26T11:07:36;100931.36;;;17.88;27.68
64614;BME280;51025;37.772;-122.432;2023-04-26T11:10:09;100931.20;;;18.25;27.71
64614;BME280;51025;37.772;-122.432;2023-04-26T11:13:00;100934.47;;;17.93;27.98
64614;BME280;51025;37.772;-122.432;2023-04-26T11:15:30;100929.12;;;18.13;27.81
64614;BME280;51025;37.772;-122.432;2023-04-26T11:18:02;100928.54;;;18.54;27.78
64614;BME280;51025;37.772;-122.432;2023-04-26T11:20:31;100931.05;;;18.07;27.85
64614;BME280;51025;37.772;-122.432;2023-04-26T11:23:01;100929.18;;;18.66;27.61
64614;BME280;51025;37.772;-122.432;2023-04-26T11:25:30;100931.81;;;18.37;27.50
64614;BME280;51025;37.772;-122.432;2023-04-26T11:28:00;100930.88;;;18.23;27.63
64614;BME280;51025;37.772;-122.432;2023-04-26T11:30:30;100930.76;;;18.13;27.69
64614;BME280;51025;37.772;-122.432;2023-04-26T11:32:59;100933.00;;;18.32;27.84
64614;BME280;51025;37.772;-122.432;2023-04-26T11:35:28;100933.88;;;18.00;27.86
64614;BME280;51025;37.772;-122.432;2023-04-26T11:37:58;100939.25;;;18.53;27.60
64614;BME280;51025;37.772;-122.432;2023-04-26T11:40:28;100938.78;;;17.90;27.81
64614;BME280;51025;37.772;-122.432;2023-04-26T11:42:59;100944.18;;;18.12;27.63
64614;BME280;51025;37.772;-122.432;2023-04-26T11:45:28;100941.95;;;18.77;27.39
64614;BME280;51025;37.772;-122.432;2023-04-26T11:47:57;100945.56;;;17.42;27.80
64614;BME280;51025;37.772;-122.432;2023-04-26T11:50:26;100941.41;;;18.40;27.67
64614;BME280;51025;37.772;-122.432;2023-04-26T11:52:55;100940.67;;;18.38;27.70
64614;BME280;51025;37.772;-122.432;2023-04-26T11:55:27;100941.21;;;18.41;27.70
64614;BME280;51025;37.772;-122.432;2023-04-26T11:57:56;100940.98;;;18.31;27.78
64614;BME280;51025;37.772;-122.432;2023-04-26T12:00:26;100938.57;;;18.67;27.12
64614;BME280;51025;37.772;-122.432;2023-04-26T12:02:54;100943.58;;;17.69;27.53
64614;BME280;51025;37.772;-122.432;2023-04-26T12:05:25;100941.51;;;18.40;27.64
64614;BME280;51025;37.772;-122.432;2023-04-26T12:07:54;100939.63;;;17.67;27.93
64614;BME280;51025;37.772;-122.432;2023-04-26T12:10:25;100939.88;;;18.33;27.62
64614;BME280;51025;37.772;-122.432;2023-04-26T12:12:57;100934.23;;;18.09;27.79
64614;BME280;51025;37.772;-122.432;2023-04-26T12:15:29;100932.40;;;18.02;27.88
64614;BME280;51025;37.772;-122.432;2023-04-26T12:18:00;100930.61;;;17.72;27.79
64614;BME280;51025;37.772;-122.432;2023-04-26T12:20:34;100932.14;;;18.00;27.62
64614;BME280;51025;37.772;-122.432;2023-04-26T12:23:04;100928.82;;;17.79;27.73
64614;BME280;51025;37.772;-122.432;2023-04-26T12:25:34;100926.52;;;17.90;28.00
64614;BME280;51025;37.772;-122.432;2023-04-26T12:28:04;100928.44;;;18.88;27.09
64614;BME280;51025;37.772;-122.432;2023-04-26T12:30:33;100936.94;;;17.99;27.77
64614;BME280;51025;37.772;-122.432;2023-04-26T12:33:06;100936.28;;;18.01;27.88
64614;BME280;51025;37.772;-122.432;2023-04-26T12:35:34;100939.52;;;17.88;27.66